Time;durP1;ratioP1;P1;durP2;ratioP2;P2;SDS_P1;SDS_P2;PMS_P1;PMS_P2;Temp;Humidity;BMP_temperature;BMP_pressure;BME280_temperature;BME280_humidity;BME280_pressure;Samples;Min_cycle;Max_cycle;Signal;HPM_P1;HPM_P2
2022/05/09 00:00:29;;;;;;;;;26.00;26.00;22.30;37.50;;;;;;5058931;28;8789;-74
2022/05/09 00:02:56;;;;;;;;;20.00;20.00;22.30;37.20;;;;;;5076489;28;8797;-73
2022/05/09 00:05:24;;;;;;;;;33.00;32.00;22.30;36.90;;;;;;5076558;28;8762;-72
2022/05/09 00:07:51;;;;;;;;;32.00;30.67;22.30;36.70;;;;;;5076533;28;8785;-72
2022/05/09 00:10:20;;;;;;;;;26.67;25.67;22.30;36.80;;;;;;5076279;28;8762;-72
2022/05/09 00:12:46;;;;;;;;;31.67;31.67;22.20;37.00;;;;;;5076101;28;8817;-73
2022/05/09 00:15:13;;;;;;;;;27.00;27.00;22.00;37.70;;;;;;5076276;28;8785;-73
2022/05/09 00:17:39;;;;;;;;;29.33;29.33;21.80;38.20;;;;;;5075551;28;8777;-73
2022/05/09 00:20:06;;;;;;;;;31.33;30.33;21.70;39.00;;;;;;5076182;28;8819;-73
2022/05/09 00:22:41;;;;;;;;;31.00;31.00;21.70;39.00;;;;;;5076019;28;8912;-72
2022/05/09 00:25:07;;;;;;;;;26.67;26.67;21.60;39.00;;;;;;5076458;28;9372;-72
2022/05/09 00:27:33;;;;;;;;;27.00;27.00;21.60;39.50;;;;;;5075993;28;8784;-73
2022/05/09 00:29:58;;;;;;;;;24.00;24.00;21.60;39.20;;;;;;5075971;28;8830;-72
2022/05/09 00:32:24;;;;;;;;;20.67;20.67;21.60;38.90;;;;;;5075922;28;8770;-72
2022/05/09 00:34:50;;;;;;;;;19.67;19.67;21.60;38.60;;;;;;5076145;28;8758;-72
2022/05/09 00:37:15;;;;;;;;;21.33;21.33;21.70;38.70;;;;;;5075794;28;8766;-72
2022/05/09 00:39:41;;;;;;;;;27.67;27.33;21.70;38.60;;;;;;5076123;28;8762;-72
2022/05/09 00:42:13;;;;;;;;;22.67;22.67;21.70;38.60;;;;;;5075768;28;9436;-72
2022/05/09 00:44:39;;;;;;;;;23.00;23.00;21.60;38.60;;;;;;5075697;28;8841;-72
2022/05/09 00:47:05;;;;;;;;;23.33;23.33;21.60;38.90;;;;;;5075642;28;8872;-72
2022/05/09 00:49:37;;;;;;;;;18.67;18.67;21.60;39.00;;;;;;5075596;28;8779;-73
2022/05/09 00:52:09;;;;;;;;;22.00;22.00;21.60;38.70;;;;;;5075673;28;8785;-72
2022/05/09 00:54:48;;;;;;;;;22.00;22.00;21.60;38.30;;;;;;5057869;28;9427;-72
2022/05/09 00:57:21;;;;;;;;;25.67;25.67;21.50;38.40;;;;;;5075801;28;9635;-72
2022/05/09 00:59:49;;;;;;;;;23.00;23.00;21.50;39.00;;;;;;5075431;28;8791;-73
2022/05/09 01:02:17;;;;;;;;;23.67;23.67;21.50;39.00;;;;;;5075279;28;8773;-72
2022/05/09 01:04:50;;;;;;;;;24.00;24.00;21.50;38.90;;;;;;5075559;28;8793;-73
2022/05/09 01:07:16;;;;;;;;;21.33;21.33;21.60;38.70;;;;;;5075620;28;8760;-73
2022/05/09 01:09:42;;;;;;;;;20.67;20.67;21.50;38.50;;;;;;5075426;28;8790;-73
2022/05/09 01:12:12;;;;;;;;;26.00;26.00;21.50;38.70;;;;;;5075454;28;8888;-73
2022/05/09 01:14:39;;;;;;;;;19.67;19.67;21.50;38.70;;;;;;5074999;28;9675;-73
2022/05/09 01:17:06;;;;;;;;;19.33;19.33;21.40;38.70;;;;;;5075302;28;9443;-73
2022/05/09 01:19:36;;;;;;;;;21.67;21.67;21.40;37.40;;;;;;5075093;28;8784;-72
2022/05/09 01:22:16;;;;;;;;;20.00;20.00;21.40;38.20;;;;;;5074859;28;9471;-73
2022/05/09 01:24:42;;;;;;;;;22.00;22.00;21.40;38.60;;;;;;5075042;28;9463;-73
2022/05/09 01:27:08;;;;;;;;;15.33;15.33;21.40;38.40;;;;;;5074929;28;8770;-72
2022/05/09 01:30:05;;;;;;;;;20.00;20.00;21.40;38.30;;;;;;5075104;28;8812;-73
2022/05/09 01:32:40;;;;;;;;;22.67;22.67;21.40;38.40;;;;;;5074969;28;8766;-73
2022/05/09 01:35:17;;;;;;;;;22.00;22.00;21.30;38.40;;;;;;5074810;28;8851;-73
2022/05/09 01:37:47;;;;;;;;;22.00;21.67;21.30;37.70;;;;;;5075043;28;8797;-73
2022/05/09 01:40:13;;;;;;;;;23.67;23.67;21.30;38.10;;;;;;5074741;28;8772;-73
2022/05/09 01:42:42;;;;;;;;;21.33;21.33;21.30;38.50;;;;;;5074533;28;8782;-73
2022/05/09 01:45:10;;;;;;;;;21.00;21.00;21.30;38.90;;;;;;5074940;28;8842;-73
2022/05/09 01:50:19;;;;;;;;;22.33;22.33;21.10;39.30;;;;;;5074735;28;9407;-73
2022/05/09 01:52:46;;;;;;;;;23.33;23.33;21.10;39.60;;;;;;5074623;28;8818;-73
2022/05/09 01:55:11;;;;;;;;;11.33;11.33;21.10;39.50;;;;;;5056864;28;9439;-73
2022/05/09 01:57:37;;;;;;;;;24.00;24.00;21.00;39.70;;;;;;5074541;28;8746;-73
2022/05/09 02:00:08;;;;;;;;;21.00;21.00;21.00;39.60;;;;;;5074417;28;9415;-72
2022/05/09 02:02:34;;;;;;;;;22.67;22.67;21.00;39.10;;;;;;5074318;28;8831;-73
2022/05/09 02:05:00;;;;;;;;;24.00;24.00;21.00;39.40;;;;;;5074516;28;8778;-73
2022/05/09 02:07:27;;;;;;;;;24.67;24.67;21.00;40.00;;;;;;5074715;28;9368;-73
2022/05/09 02:09:53;;;;;;;;;23.00;23.00;21.00;40.20;;;;;;5074281;28;8791;-73
2022/05/09 02:12:19;;;;;;;;;21.67;21.67;21.00;40.80;;;;;;5074304;28;8757;-72
2022/05/09 02:14:46;;;;;;;;;25.67;25.67;20.60;42.60;;;;;;5074274;28;8770;-73
2022/05/09 02:17:13;;;;;;;;;21.00;21.00;20.60;43.50;;;;;;5074276;28;8776;-73
2022/05/09 02:19:40;;;;;;;;;27.67;27.67;20.30;44.30;;;;;;5074491;28;8776;-73
2022/05/09 02:22:08;;;;;;;;;22.67;22.67;20.40;44.70;;;;;;5074478;28;8745;-73
2022/05/09 02:24:35;;;;;;;;;24.33;24.33;20.50;44.60;;;;;;5074103;28;8786;-73
2022/05/09 02:27:01;;;;;;;;;23.00;23.00;20.60;44.10;;;;;;5074164;28;8770;-72
2022/05/09 02:29:28;;;;;;;;;21.33;21.33;20.70;44.20;;;;;;5074088;28;8774;-72
2022/05/09 02:31:57;;;;;;;;;26.00;26.00;20.80;44.30;;;;;;5074169;28;8848;-73
2022/05/09 02:34:23;;;;;;;;;22.67;22.67;20.80;44.50;;;;;;5074719;28;8796;-73
2022/05/09 02:36:49;;;;;;;;;25.00;25.00;20.80;44.60;;;;;;5078158;28;8820;-73
2022/05/09 02:39:15;;;;;;;;;22.00;22.00;20.70;44.70;;;;;;5078314;28;8765;-73
2022/05/09 02:41:41;;;;;;;;;26.67;26.67;20.30;45.90;;;;;;5078380;28;8754;-72
2022/05/09 02:44:07;;;;;;;;;27.00;24.33;20.50;45.70;;;;;;5077841;28;8830;-73
2022/05/09 02:46:32;;;;;;;;;24.33;24.33;20.50;45.30;;;;;;5077964;28;8778;-73
2022/05/09 02:48:59;;;;;;;;;27.33;27.33;20.50;45.20;;;;;;5078098;28;8780;-73
2022/05/09 02:51:27;;;;;;;;;27.00;27.00;20.20;45.50;;;;;;5077791;28;8796;-73
2022/05/09 02:53:56;;;;;;;;;27.33;27.33;20.30;45.30;;;;;;5077985;28;8807;-72
2022/05/09 02:56:22;;;;;;;;;18.00;18.00;20.50;45.20;;;;;;5077771;28;8872;-73
2022/05/09 02:58:48;;;;;;;;;25.00;25.00;20.50;45.40;;;;;;5077992;28;9489;-72
2022/05/09 03:01:13;;;;;;;;;24.00;24.00;20.50;45.50;;;;;;5077963;28;8786;-72
2022/05/09 03:06:23;;;;;;;;;24.00;24.00;20.00;46.90;;;;;;5077605;28;9340;-73
2022/05/09 03:08:49;;;;;;;;;29.33;29.00;20.00;47.20;;;;;;5077441;28;8827;-72
2022/05/09 03:11:15;;;;;;;;;26.67;26.67;20.00;47.40;;;;;;5077412;28;8766;-72
2022/05/09 03:13:40;;;;;;;;;27.00;27.00;20.10;46.70;;;;;;5059401;28;8829;-73
2022/05/09 03:16:08;;;;;;;;;27.00;27.00;20.10;46.80;;;;;;5077356;28;8769;-72
2022/05/09 03:18:34;;;;;;;;;27.33;27.33;19.80;47.70;;;;;;5078888;28;8811;-73
2022/05/09 03:21:01;;;;;;;;;23.00;23.00;19.80;47.60;;;;;;5059453;28;8814;-73
2022/05/09 03:23:26;;;;;;;;;25.00;25.00;19.60;48.00;;;;;;5059419;28;8895;-73
2022/05/09 03:25:52;;;;;;;;;27.00;27.00;19.60;48.60;;;;;;5077437;28;8766;-72
2022/05/09 03:28:24;;;;;;;;;30.00;30.00;19.60;48.50;;;;;;5077131;28;8884;-73
2022/05/09 03:30:51;;;;;;;;;29.67;29.67;19.70;48.40;;;;;;5077227;28;8776;-72
2022/05/09 03:33:19;;;;;;;;;31.67;31.00;19.80;47.80;;;;;;5077124;28;8793;-73
2022/05/09 03:35:45;;;;;;;;;33.33;32.33;19.90;47.80;;;;;;5077072;28;8785;-72
2022/05/09 03:38:11;;;;;;;;;28.00;28.00;19.80;47.90;;;;;;5077591;28;8860;-72
2022/05/09 03:40:37;;;;;;;;;23.67;23.67;19.70;48.30;;;;;;5117885;28;8834;-74
2022/05/09 03:43:04;;;;;;;;;27.00;27.00;19.70;48.40;;;;;;5117652;28;8805;-72
2022/05/09 03:45:29;;;;;;;;;29.00;29.00;19.50;49.00;;;;;;5117165;28;8754;-72
2022/05/09 03:47:55;;;;;;;;;26.67;26.67;19.30;49.70;;;;;;5117615;28;8808;-72
2022/05/09 03:50:22;;;;;;;;;29.67;29.67;19.40;49.80;;;;;;5117533;28;8773;-72
2022/05/09 03:52:48;;;;;;;;;27.00;27.00;19.10;49.80;;;;;;5117437;28;8742;-73
2022/05/09 03:55:14;;;;;;;;;27.33;27.33;18.90;51.20;;;;;;5099348;28;8795;-72
2022/05/09 03:57:52;;;;;;;;;30.00;29.67;18.90;51.00;;;;;;5117360;28;8742;-73
2022/05/09 04:00:20;;;;;;;;;28.00;28.00;19.00;51.10;;;;;;5117331;28;8770;-72
2022/05/09 04:02:46;;;;;;;;;25.33;25.33;19.00;50.90;;;;;;5117450;28;8777;-72
2022/05/09 04:05:16;;;;;;;;;30.33;30.33;18.90;51.30;;;;;;5117131;28;8770;-73
2022/05/09 04:07:50;;;;;;;;;31.00;31.00;19.10;51.10;;;;;;5117123;28;8785;-72
2022/05/09 04:10:22;;;;;;;;;28.67;28.00;19.50;50.20;;;;;;5117141;28;8870;-73
2022/05/09 04:12:49;;;;;;;;;31.00;31.00;19.70;49.50;;;;;;5098806;28;8952;-72
2022/05/09 04:17:59;;;;;;;;;26.33;26.33;20.00;48.80;;;;;;5117098;28;8710;-72
2022/05/09 04:20:28;;;;;;;;;25.00;25.00;20.00;48.80;;;;;;5116973;28;8815;-72
2022/05/09 04:22:54;;;;;;;;;24.67;24.67;19.80;48.90;;;;;;5117059;28;8812;-72
2022/05/09 04:25:21;;;;;;;;;28.33;28.33;19.80;49.00;;;;;;5117006;28;8769;-73
2022/05/09 04:27:47;;;;;;;;;26.67;26.67;19.50;49.00;;;;;;5116779;28;8757;-72
2022/05/09 04:30:13;;;;;;;;;28.33;28.33;19.60;49.40;;;;;;5116658;28;8796;-72
2022/05/09 04:32:40;;;;;;;;;29.00;29.00;19.70;49.50;;;;;;5116590;28;8776;-72
2022/05/09 04:35:44;;;;;;;;;28.00;28.00;19.80;49.00;;;;;;5116487;28;8835;-72
2022/05/09 04:38:03;;;;;;;;;27.00;27.00;19.80;48.80;;;;;;5112574;28;8882;-72
2022/05/09 04:40:31;;;;;;;;;17.33;17.33;19.60;49.90;;;;;;5104322;28;8872;-71
2022/05/09 04:42:58;;;;;;;;;29.33;29.33;19.70;50.40;;;;;;5116462;28;8809;-71
2022/05/09 04:45:25;;;;;;;;;31.00;30.33;19.90;49.80;;;;;;5116389;28;8761;-71
2022/05/09 04:47:51;;;;;;;;;31.67;31.00;20.10;49.20;;;;;;5116302;28;8838;-71
2022/05/09 04:50:21;;;;;;;;;28.00;28.00;20.20;49.10;;;;;;5116475;28;8765;-72
2022/05/09 04:52:47;;;;;;;;;26.67;26.67;20.20;48.90;;;;;;5116242;28;8753;-71
2022/05/09 04:55:14;;;;;;;;;31.00;31.00;20.40;48.60;;;;;;5116228;28;8782;-72
2022/05/09 04:57:40;;;;;;;;;32.33;32.33;20.40;48.50;;;;;;5115143;28;8758;-72
2022/05/09 05:00:18;;;;;;;;;28.67;28.67;20.50;48.50;;;;;;5116144;28;8764;-71
2022/05/09 05:02:43;;;;;;;;;33.00;32.00;20.40;48.40;;;;;;5115962;28;8765;-72
2022/05/09 05:05:10;;;;;;;;;33.33;32.00;20.50;48.40;;;;;;5115909;28;8734;-72
2022/05/09 05:07:36;;;;;;;;;30.33;30.33;20.50;48.60;;;;;;5116008;28;8757;-72
2022/05/09 05:10:03;;;;;;;;;25.67;25.67;20.60;48.50;;;;;;5101598;28;8863;-72
2022/05/09 05:12:29;;;;;;;;;27.33;27.33;20.50;48.70;;;;;;5108907;28;8764;-72
2022/05/09 05:14:55;;;;;;;;;31.67;30.67;20.50;48.90;;;;;;5095672;28;8763;-72
2022/05/09 05:17:21;;;;;;;;;28.00;28.00;20.60;48.80;;;;;;5095336;28;8850;-72
2022/05/09 05:19:48;;;;;;;;;25.00;25.00;20.70;48.80;;;;;;5096007;28;8884;-71
2022/05/09 05:22:15;;;;;;;;;27.00;27.00;20.40;49.10;;;;;;5106403;28;8846;-71
2022/05/09 05:24:44;;;;;;;;;27.67;27.67;20.00;50.30;;;;;;5101637;28;8791;-72
2022/05/09 05:27:12;;;;;;;;;29.00;29.00;19.80;50.90;;;;;;5095269;28;8770;-71
2022/05/09 05:29:37;;;;;;;;;25.33;25.33;20.00;51.40;;;;;;5095187;28;9441;-73
2022/05/09 05:32:24;;;;;;;;;31.33;30.00;20.20;51.00;;;;;;5095100;28;8763;-73
2022/05/09 05:34:50;;;;;;;;;30.00;30.00;20.30;51.10;;;;;;5097414;28;8766;-73
2022/05/09 05:37:17;;;;;;;;;28.67;28.67;20.30;50.70;;;;;;5115596;28;8753;-74
2022/05/09 05:39:43;;;;;;;;;29.67;29.67;20.00;51.70;;;;;;5115502;28;8772;-73
2022/05/09 05:42:10;;;;;;;;;27.33;27.33;20.00;51.90;;;;;;5115136;28;8826;-72
2022/05/09 05:44:39;;;;;;;;;24.33;24.33;20.00;51.80;;;;;;5115275;28;8884;-73
2022/05/09 05:47:10;;;;;;;;;26.67;26.67;19.60;52.90;;;;;;5115349;28;9403;-71
2022/05/09 05:49:37;;;;;;;;;26.33;26.33;19.60;53.00;;;;;;5113776;28;8765;-73
2022/05/09 05:52:04;;;;;;;;;23.33;23.33;19.60;53.40;;;;;;5107827;28;8857;-73
2022/05/09 05:54:39;;;;;;;;;24.33;24.33;19.70;53.10;;;;;;5112903;28;8772;-73
2022/05/09 05:57:06;;;;;;;;;24.00;22.00;19.80;52.60;;;;;;5094738;28;8784;-73
2022/05/09 05:59:32;;;;;;;;;23.67;23.67;20.10;51.90;;;;;;5094758;28;8780;-71
2022/05/09 06:01:58;;;;;;;;;22.67;22.67;20.30;51.40;;;;;;5094650;28;9441;-71
2022/05/09 06:04:24;;;;;;;;;20.00;20.00;20.30;50.60;;;;;;5094421;28;8796;-71
2022/05/09 06:06:50;;;;;;;;;22.00;22.00;20.50;49.60;;;;;;5087418;28;8798;-73
2022/05/09 06:09:16;;;;;;;;;25.00;25.00;20.60;48.90;;;;;;5105597;28;8806;-73
2022/05/09 06:11:43;;;;;;;;;19.00;19.00;20.60;48.70;;;;;;5092883;28;8826;-73
2022/05/09 06:14:10;;;;;;;;;22.00;22.00;20.80;47.40;;;;;;5090746;28;8966;-73
2022/05/09 06:16:37;;;;;;;;;21.33;21.33;20.90;47.40;;;;;;5092465;28;8765;-73
2022/05/09 06:19:08;;;;;;;;;23.67;23.67;21.00;46.70;;;;;;5083541;28;8932;-73
2022/05/09 06:21:34;;;;;;;;;21.67;21.67;21.10;46.30;;;;;;5074288;28;8770;-72
2022/05/09 06:24:00;;;;;;;;;20.33;20.33;21.30;45.30;;;;;;5075648;28;8826;-73
2022/05/09 06:26:27;;;;;;;;;23.00;23.00;21.40;45.40;;;;;;5093387;28;8772;-73
2022/05/09 06:28:53;;;;;;;;;21.33;21.33;21.50;45.50;;;;;;5098443;28;8756;-73
2022/05/09 06:31:19;;;;;;;;;25.00;25.00;21.40;46.20;;;;;;5093011;28;8746;-73
2022/05/09 06:33:45;;;;;;;;;19.67;19.67;21.10;46.30;;;;;;5093252;28;8760;-73
2022/05/09 06:36:10;;;;;;;;;18.00;18.00;21.20;46.80;;;;;;5110913;28;8758;-73
2022/05/09 06:38:37;;;;;;;;;20.00;20.00;21.30;43.90;;;;;;5094527;28;8760;-72
2022/05/09 06:41:07;;;;;;;;;21.33;21.33;21.40;43.70;;;;;;5078380;28;8795;-73
2022/05/09 06:43:33;;;;;;;;;18.67;18.67;21.50;44.50;;;;;;5085110;28;8854;-73
2022/05/09 06:46:00;;;;;;;;;21.67;21.67;21.60;44.70;;;;;;5093979;28;8748;-73
2022/05/09 06:48:25;;;;;;;;;22.67;22.67;21.70;45.00;;;;;;5087695;28;8782;-73
2022/05/09 06:50:51;;;;;;;;;22.33;22.33;21.80;44.30;;;;;;5082422;28;9001;-73
2022/05/09 06:53:17;;;;;;;;;15.67;15.67;21.90;44.50;;;;;;5114896;28;9383;-73
2022/05/09 06:55:43;;;;;;;;;16.67;16.67;21.90;43.60;;;;;;5099084;28;9476;-73
2022/05/09 06:58:11;;;;;;;;;21.33;21.33;21.60;42.90;;;;;;5091288;28;8890;-73
2022/05/09 07:00:37;;;;;;;;;18.67;18.67;21.60;43.40;;;;;;5082797;28;8854;-73
2022/05/09 07:03:04;;;;;;;;;23.00;23.00;21.80;43.20;;;;;;5073970;28;8793;-72
2022/05/09 07:05:30;;;;;;;;;15.33;15.33;21.70;42.20;;;;;;5098064;28;8856;-73
2022/05/09 07:07:56;;;;;;;;;18.67;17.67;21.80;42.70;;;;;;5114015;28;8770;-74
2022/05/09 07:10:22;;;;;;;;;15.33;15.33;22.00;42.60;;;;;;5092356;28;8801;-73
2022/05/09 07:12:51;;;;;;;;;16.33;16.33;22.10;42.40;;;;;;5091351;28;8930;-72
2022/05/09 07:15:23;;;;;;;;;14.67;14.67;22.30;41.00;;;;;;5093848;28;8752;-73
2022/05/09 07:17:53;;;;;;;;;20.67;20.67;22.40;41.80;;;;;;5093759;28;8748;-72
2022/05/09 07:20:21;;;;;;;;;22.33;22.33;22.30;41.80;;;;;;5094084;28;8761;-70
2022/05/09 07:23:01;;;;;;;;;19.00;19.00;22.30;42.20;;;;;;5091138;28;8784;-71
2022/05/09 07:25:27;;;;;;;;;11.00;11.00;22.50;42.20;;;;;;5099495;28;8778;-71
2022/05/09 07:27:54;;;;;;;;;15.33;15.33;22.50;40.10;;;;;;5094042;28;8867;-71
2022/05/09 07:30:22;;;;;;;;;15.00;15.00;22.60;40.20;;;;;;5088325;28;8831;-71
2022/05/09 07:32:51;;;;;;;;;13.33;13.33;22.70;39.40;;;;;;5113190;28;8770;-72
2022/05/09 07:35:17;;;;;;;;;14.00;14.00;22.70;38.20;;;;;;5117433;28;8749;-71
2022/05/09 07:37:46;;;;;;;;;17.33;17.33;22.80;38.40;;;;;;5117808;28;9459;-72
2022/05/09 07:40:13;;;;;;;;;12.67;12.67;22.90;39.10;;;;;;5099667;28;8807;-72
2022/05/09 07:42:42;;;;;;;;;17.33;16.33;23.10;38.30;;;;;;5088046;28;9459;-72
2022/05/09 07:45:10;;;;;;;;;20.00;20.00;23.20;38.80;;;;;;5078247;28;8882;-73
2022/05/09 07:47:35;;;;;;;;;16.33;16.33;23.20;39.20;;;;;;5076874;28;8769;-72
2022/05/09 07:50:01;;;;;;;;;16.33;16.33;23.40;38.30;;;;;;5076925;28;8835;-72
2022/05/09 07:52:27;;;;;;;;;17.67;17.67;23.50;37.80;;;;;;5085421;28;8767;-71
2022/05/09 07:54:53;;;;;;;;;16.67;16.67;23.60;37.80;;;;;;5084512;28;8791;-70
2022/05/09 07:57:18;;;;;;;;;17.67;17.67;23.30;38.00;;;;;;5078821;28;8768;-71
2022/05/09 07:59:44;;;;;;;;;16.00;16.00;23.50;37.30;;;;;;5104080;28;8789;-75
2022/05/09 08:02:10;;;;;;;;;8.00;8.00;23.70;36.60;;;;;;5104414;28;8819;-72
2022/05/09 08:04:36;;;;;;;;;14.67;14.67;23.60;36.30;;;;;;5095695;28;8796;-72
2022/05/09 08:07:02;;;;;;;;;15.33;15.33;23.40;35.70;;;;;;5109166;28;8796;-71
2022/05/09 08:09:28;;;;;;;;;13.33;13.33;23.30;35.60;;;;;;5088283;28;8781;-73
2022/05/09 08:11:55;;;;;;;;;17.33;15.00;23.60;35.70;;;;;;5096514;28;8759;-74
2022/05/09 08:14:20;;;;;;;;;16.67;16.67;23.90;34.90;;;;;;5106098;28;8837;-77
2022/05/09 08:16:46;;;;;;;;;13.00;13.00;24.20;35.60;;;;;;5116969;28;8818;-71
2022/05/09 08:19:12;;;;;;;;;15.33;15.33;24.20;36.30;;;;;;5117071;28;8993;-74
2022/05/09 08:21:38;;;;;;;;;16.00;16.00;24.20;36.30;;;;;;5116896;28;8753;-69
2022/05/09 08:24:05;;;;;;;;;16.00;16.00;24.30;37.00;;;;;;5117006;28;8801;-71
2022/05/09 08:26:32;;;;;;;;;15.33;14.33;24.50;35.30;;;;;;5100938;28;8778;-70
2022/05/09 08:28:58;;;;;;;;;16.00;16.00;24.50;35.20;;;;;;5088359;28;8768;-70
2022/05/09 08:31:24;;;;;;;;;12.33;12.33;24.60;32.90;;;;;;5093340;28;8896;-70
2022/05/09 08:33:51;;;;;;;;;18.67;17.00;24.60;32.90;;;;;;5091137;28;8766;-70
2022/05/09 08:39:04;;;;;;;;;16.67;16.67;24.90;34.00;;;;;;5096053;28;8752;-73
2022/05/09 08:41:51;;;;;;;;;19.67;19.00;24.90;32.60;;;;;;5095877;28;8744;-73
2022/05/09 08:44:35;;;;;;;;;17.33;15.67;24.70;32.70;;;;;;5089694;28;8823;-77
2022/05/09 08:47:17;;;;;;;;;19.00;19.00;25.00;33.30;;;;;;5077855;28;8842;-73
2022/05/09 08:50:09;;;;;;;;;10.33;10.33;25.20;32.20;;;;;;5095743;28;8796;-73
2022/05/09 08:52:49;;;;;;;;;11.00;11.00;24.30;32.30;;;;;;5095829;28;8824;-74
2022/05/09 08:55:22;;;;;;;;;18.33;17.33;24.80;32.00;;;;;;5084781;28;8774;-74
2022/05/09 08:57:53;;;;;;;;;9.67;9.67;24.90;32.40;;;;;;5084486;28;8781;-72
2022/05/09 09:00:20;;;;;;;;;16.00;15.00;25.20;32.90;;;;;;5092355;28;9514;-69
2022/05/09 09:03:16;;;;;;;;;13.67;13.00;25.50;31.40;;;;;;5084054;28;8767;-75
2022/05/09 09:05:46;;;;;;;;;18.00;17.00;25.70;29.80;;;;;;5089051;28;8815;-73
2022/05/09 09:08:17;;;;;;;;;17.67;17.33;25.90;29.90;;;;;;5078005;28;8780;-75
2022/05/09 09:10:55;;;;;;;;;12.33;12.33;26.00;29.30;;;;;;5098359;28;8797;-75
2022/05/09 09:13:37;;;;;;;;;18.33;16.33;26.10;28.20;;;;;;5112072;28;11638;-73
2022/05/09 09:16:40;;;;;;;;;16.00;14.67;26.30;28.50;;;;;;5098697;28;11429;-74
2022/05/09 09:19:29;;;;;;;;;14.67;14.67;26.30;28.80;;;;;;5115922;28;8784;-76
2022/05/09 09:22:06;;;;;;;;;10.67;10.67;26.30;30.70;;;;;;5115725;28;8745;-75
2022/05/09 09:24:54;;;;;;;;;12.33;12.33;26.60;30.00;;;;;;5113851;28;8924;-73
2022/05/09 09:27:31;;;;;;;;;12.67;12.00;26.40;29.20;;;;;;5097237;28;8778;-71
2022/05/09 09:30:10;;;;;;;;;7.00;7.00;26.40;26.80;;;;;;5098888;28;8761;-74
2022/05/09 09:32:40;;;;;;;;;12.00;12.00;26.60;23.30;;;;;;5095253;28;11428;-71
2022/05/09 09:35:44;;;;;;;;;9.67;9.67;26.90;23.60;;;;;;5105239;28;11443;-73
2022/05/09 09:38:40;;;;;;;;;9.00;9.00;27.60;24.10;;;;;;5052492;28;12133;-74
2022/05/09 09:41:20;;;;;;;;;10.33;10.33;28.30;24.50;;;;;;5115462;28;11401;-74
2022/05/09 09:43:49;;;;;;;;;10.00;10.00;28.80;24.50;;;;;;5074239;28;11490;-73
2022/05/09 09:46:18;;;;;;;;;9.00;9.00;29.20;22.10;;;;;;5076630;28;11539;-73
2022/05/09 09:48:43;;;;;;;;;10.00;10.00;29.20;21.60;;;;;;5093015;28;11422;-73
2022/05/09 09:51:15;;;;;;;;;11.00;11.00;28.70;22.90;;;;;;5076334;28;11467;-76
2022/05/09 09:53:57;;;;;;;;;10.33;10.33;28.60;23.90;;;;;;5094191;28;8802;-73
2022/05/09 09:56:22;;;;;;;;;9.50;9.50;29.30;24.40;;;;;;5094757;28;12156;-72
2022/05/09 09:59:18;;;;;;;;;8.00;8.00;29.20;22.50;;;;;;5092707;28;11424;-72
2022/05/09 10:02:05;;;;;;;;;7.50;7.50;29.80;23.30;;;;;;5097288;28;8888;-72
2022/05/09 10:04:31;;;;;;;;;9.25;9.25;30.10;22.30;;;;;;5098697;28;11421;-71
2022/05/09 10:07:00;;;;;;;;;8.00;8.00;30.10;21.60;;;;;;5107684;28;11415;-72
2022/05/09 10:09:40;;;;;;;;;11.75;11.75;30.50;22.00;;;;;;5093303;28;11419;-73
2022/05/09 10:12:18;;;;;;;;;8.00;8.00;31.10;22.40;;;;;;5083194;28;11444;-72
2022/05/09 10:14:44;;;;;;;;;7.25;7.25;31.40;21.40;;;;;;5091325;28;11412;-74
2022/05/09 10:17:14;;;;;;;;;9.25;9.25;31.50;21.20;;;;;;5094499;28;11386;-74
2022/05/09 10:19:41;;;;;;;;;10.00;10.00;31.30;20.90;;;;;;5089061;28;11441;-76
2022/05/09 10:25:28;;;;;;;;;9.75;9.75;30.90;22.50;;;;;;5087252;28;11419;-73
2022/05/09 10:28:07;;;;;;;;;10.00;10.00;30.90;22.50;;;;;;5092604;28;11474;-72
2022/05/09 10:30:37;;;;;;;;;11.25;11.25;30.80;21.70;;;;;;5084833;28;11470;-71
2022/05/09 10:33:08;;;;;;;;;8.25;8.25;30.30;22.30;;;;;;5095215;28;11475;-71
2022/05/09 10:35:42;;;;;;;;;10.67;10.67;30.40;22.20;;;;;;5088508;28;11402;-71
2022/05/09 10:38:19;;;;;;;;;9.75;9.75;30.70;22.50;;;;;;5088037;28;11519;-71
2022/05/09 10:40:54;;;;;;;;;10.25;10.25;30.80;22.40;;;;;;5103173;28;11492;-73
2022/05/09 10:43:32;;;;;;;;;10.00;10.00;31.20;22.90;;;;;;5101388;28;11468;-73
2022/05/09 10:46:09;;;;;;;;;10.33;10.33;31.80;22.40;;;;;;5088844;28;11486;-74
2022/05/09 10:49:02;;;;;;;;;11.00;11.00;31.90;21.40;;;;;;5091830;28;11511;-72
2022/05/09 10:52:23;;;;;;;;;8.00;8.00;32.40;21.60;;;;;;5113814;28;11450;-72
2022/05/09 10:54:55;;;;;;;;;9.25;9.25;32.70;20.30;;;;;;5061257;28;11474;-77
2022/05/09 10:57:44;;;;;;;;;10.50;10.50;32.80;19.90;;;;;;5066204;28;11366;-72
2022/05/09 11:00:18;;;;;;;;;12.00;12.00;33.00;21.30;;;;;;5045700;28;11453;-72
2022/05/09 11:02:56;;;;;;;;;11.67;11.67;33.30;21.20;;;;;;5065653;28;11505;-72
2022/05/09 11:05:24;;;;;;;;;12.25;12.25;33.20;21.30;;;;;;5064213;28;11488;-71
2022/05/09 11:08:21;;;;;;;;;9.75;9.75;33.00;20.10;;;;;;5055349;28;11543;-71
2022/05/09 11:10:57;;;;;;;;;10.25;10.25;33.30;20.70;;;;;;5055002;28;11539;-71
2022/05/09 11:13:26;;;;;;;;;11.50;11.50;33.90;21.00;;;;;;5054815;28;11680;-72
2022/05/09 11:15:57;;;;;;;;;6.25;6.25;34.00;20.70;;;;;;5055156;28;11463;-72
2022/05/09 11:18:52;;;;;;;;;10.75;10.75;34.20;21.10;;;;;;5054995;28;11415;-72
2022/05/09 11:21:36;;;;;;;;;9.50;9.50;34.60;20.00;;;;;;5002600;28;11667;-72
2022/05/09 11:24:32;;;;;;;;;11.25;11.25;35.10;20.10;;;;;;5055235;28;11540;-72
2022/05/09 11:27:04;;;;;;;;;7.50;7.50;36.20;19.00;;;;;;5055039;28;11430;-73
2022/05/09 11:29:51;;;;;;;;;9.00;9.00;40.60;17.40;;;;;;5060191;28;11509;-72
2022/05/09 11:32:36;;;;;;;;;7.25;7.25;47.70;15.60;;;;;;5097492;28;11416;-72
2022/05/09 11:35:30;;;;;;;;;7.00;7.00;52.80;13.10;;;;;;5105121;28;11376;-73
2022/05/09 11:38:27;;;;;;;;;6.00;6.00;56.30;12.60;;;;;;5117466;28;11400;-72
2022/05/09 11:41:25;;;;;;;;;8.00;8.00;59.60;11.10;;;;;;5117619;28;12091;-70
2022/05/09 11:44:02;;;;;;;;;6.00;6.00;59.90;10.10;;;;;;5117575;28;11438;-71
2022/05/09 11:46:39;;;;;;;;;9.00;9.00;60.20;10.00;;;;;;5117297;28;12130;-70
2022/05/09 11:49:25;;;;;;;;;6.25;6.25;60.70;9.60;;;;;;5094829;28;11390;-72
2022/05/09 11:51:56;;;;;;;;;9.00;9.00;61.70;9.60;;;;;;5085021;28;11399;-71
2022/05/09 11:54:30;;;;;;;;;6.75;6.75;62.80;9.50;;;;;;5108717;28;11403;-71
2022/05/09 11:57:01;;;;;;;;;8.50;8.50;62.10;8.80;;;;;;5117118;28;11366;-71
2022/05/09 11:59:38;;;;;;;;;8.00;8.00;62.50;8.90;;;;;;5117425;28;11397;-71
2022/05/09 12:02:12;;;;;;;;;7.75;7.75;61.00;8.80;;;;;;5117416;28;12253;-72
2022/05/09 12:04:43;;;;;;;;;8.75;8.75;62.00;9.30;;;;;;5116728;28;11391;-71
2022/05/09 12:07:35;;;;;;;;;6.75;6.75;63.00;9.20;;;;;;5116940;28;11361;-71
2022/05/09 12:10:04;;;;;;;;;7.75;7.75;62.90;8.40;;;;;;5114181;28;11481;-71
2022/05/09 12:12:57;;;;;;;;;8.00;8.00;63.60;8.80;;;;;;5116523;28;11419;-72
2022/05/09 12:15:23;;;;;;;;;6.75;6.75;62.00;8.90;;;;;;5100475;28;11406;-71
2022/05/09 12:17:58;;;;;;;;;9.25;9.25;58.10;8.00;;;;;;5116607;28;11411;-71
2022/05/09 12:20:27;;;;;;;;;10.00;10.00;53.70;8.20;;;;;;5098974;28;8897;-72
2022/05/09 12:23:01;;;;;;;;;7.75;7.75;49.10;9.00;;;;;;5116610;28;11410;-72
2022/05/09 12:25:36;;;;;;;;;6.00;6.00;46.10;11.00;;;;;;5116886;28;11416;-79
2022/05/09 12:28:24;;;;;;;;;9.25;9.25;41.90;13.30;;;;;;5116479;28;12043;-79
2022/05/09 12:30:52;;;;;;;;;8.00;8.00;40.20;14.00;;;;;;5116435;28;11409;-75
2022/05/09 12:33:38;;;;;;;;;8.00;8.00;39.30;14.00;;;;;;5116386;28;11379;-74
2022/05/09 12:36:07;;;;;;;;;10.00;10.00;37.70;15.20;;;;;;5116012;28;11449;-74
2022/05/09 12:38:37;;;;;;;;;7.25;7.25;36.30;15.40;;;;;;5116239;28;11430;-73
2022/05/09 12:41:29;;;;;;;;;9.25;9.25;35.50;16.40;;;;;;5116346;28;11410;-73
2022/05/09 12:43:58;;;;;;;;;10.00;10.00;34.90;16.40;;;;;;5116773;28;12293;-73
2022/05/09 12:46:29;;;;;;;;;9.00;9.00;35.30;16.70;;;;;;5116177;28;11486;-73
2022/05/09 12:49:02;;;;;;;;;8.00;8.00;35.40;17.50;;;;;;5116293;28;11461;-73
2022/05/09 12:51:31;;;;;;;;;9.25;9.25;36.00;17.60;;;;;;5116276;28;12125;-74
2022/05/09 12:53:58;;;;;;;;;8.75;8.75;35.50;17.40;;;;;;5093030;28;11398;-72
2022/05/09 12:56:28;;;;;;;;;7.75;7.75;35.90;17.60;;;;;;5106698;28;12064;-73
2022/05/09 12:59:10;;;;;;;;;7.25;7.25;36.30;17.80;;;;;;5089658;28;12102;-75
2022/05/09 13:01:42;;;;;;;;;12.00;12.00;36.40;17.60;;;;;;5074419;28;11414;-74
2022/05/09 13:04:23;;;;;;;;;8.00;8.00;36.10;16.90;;;;;;5080537;28;11468;-74
2022/05/09 13:06:53;;;;;;;;;10.00;10.00;35.30;17.20;;;;;;5088021;28;11386;-75
2022/05/09 13:09:23;;;;;;;;;8.75;8.75;35.00;17.80;;;;;;5095629;28;12062;-72
2022/05/09 13:11:56;;;;;;;;;11.75;11.75;35.10;16.90;;;;;;5098048;28;12201;-72